UTM weather

Tunica Municipal Airport
Tunica, Mississippi, United States

Public forecast

Using degrees Fahrenheit for public forecast. Weather courtesy of forecast.io.

Current aviation weather report (METAR) for Tunica Municipal Airport

Retrieved 2020/02/22 21:55 UTC (8 minutes ago):

KUTA 222155Z AUTO 20005KT 10SM 08/M01 A3038 RMK AO2 TSNO

Closest aviation forecast (TAF) to Tunica Municipal Airport

Closest forecast is Memphis International Airport, 28.3 nm (52.5 km) NE. Retrieved 2020/02/22 18:22 UTC (4 hours ago):

TAF KMEM 221720Z 2218/2324 20007KT P6SM FEW250 FM230100 18004KT P6SM SCT250 FM231000 17005KT P6SM BKN080 FM231600 18008KT P6SM VCSH OVC060